Time;durP1;ratioP1;P1;durP2;ratioP2;P2;SDS_P1;SDS_P2;PMS_P1;PMS_P2;Temp;Humidity;BMP_temperature;BMP_pressure;BME280_temperature;BME280_humidity;BME280_pressure;Samples;Min_cycle;Max_cycle;Signal;HPM_P1;HPM_P2
2021/10/29 00:00:37;;;;;;;63.30;36.50;;;;;;;-0.10;82.84;98365.06;116930;1177;59935;-81
2021/10/29 00:03:10;;;;;;;53.20;30.70;;;;;;;-0.11;80.98;98363.19;116891;1177;59525;-76
2021/10/29 00:05:39;;;;;;;67.70;37.10;;;;;;;-0.08;82.59;98362.40;117019;1178;72134;-74
2021/10/29 00:08:09;;;;;;;64.20;36.70;;;;;;;-0.04;81.14;98361.98;117045;1170;68373;-69
2021/10/29 00:10:39;;;;;;;53.40;29.70;;;;;;;0.03;81.32;98364.27;116902;1178;68634;-72
2021/10/29 00:13:08;;;;;;;56.40;31.00;;;;;;;0.06;83.17;98364.67;116916;1178;59545;-75
2021/10/29 00:15:38;;;;;;;61.20;35.30;;;;;;;0.07;83.01;98359.95;117085;1177;59513;-84
2021/10/29 00:18:08;;;;;;;58.40;33.10;;;;;;;0.05;81.34;98357.33;116784;1178;70895;-77
2021/10/29 00:20:37;;;;;;;53.30;28.20;;;;;;;0.03;81.87;98354.93;117013;1177;67624;-83
2021/10/29 00:23:06;;;;;;;64.90;35.30;;;;;;;0.00;82.63;98357.52;116957;1177;68229;-74
2021/10/29 00:25:35;;;;;;;63.70;35.00;;;;;;;-0.08;81.01;98350.89;116979;1177;59560;-73
2021/10/29 00:28:05;;;;;;;67.30;38.80;;;;;;;-0.18;80.57;98351.71;117030;1176;59478;-75
2021/10/29 00:30:34;;;;;;;58.60;32.10;;;;;;;-0.29;80.19;98347.75;116992;1178;70357;-73
2021/10/29 00:33:04;;;;;;;50.70;31.50;;;;;;;-0.37;80.73;98347.55;116967;1179;67426;-73
2021/10/29 00:35:34;;;;;;;57.00;33.70;;;;;;;-0.43;82.12;98347.84;116915;1179;68191;-75
2021/10/29 00:38:03;;;;;;;61.10;34.50;;;;;;;-0.47;81.88;98347.27;116945;1177;59545;-77
2021/10/29 00:40:35;;;;;;;56.80;35.70;;;;;;;-0.46;81.32;98345.56;116978;1177;59558;-79
2021/10/29 00:43:04;;;;;;;67.90;36.70;;;;;;;-0.46;81.43;98343.56;117007;1177;71161;-72
2021/10/29 00:45:34;;;;;;;66.80;37.20;;;;;;;-0.50;81.31;98341.27;116991;1177;68260;-78
2021/10/29 00:48:06;;;;;;;64.60;36.20;;;;;;;-0.55;81.17;98334.10;116960;1179;69190;-76
2021/10/29 00:50:35;;;;;;;53.40;30.40;;;;;;;-0.60;81.00;98329.68;117031;1177;59548;-79
2021/10/29 00:53:06;;;;;;;51.70;30.20;;;;;;;-0.61;83.45;98327.97;116941;1178;59526;-69
2021/10/29 00:55:36;;;;;;;53.90;28.40;;;;;;;-0.61;83.32;98327.40;116910;1178;71139;-71
2021/10/29 00:58:06;;;;;;;58.50;32.00;;;;;;;-0.61;83.57;98326.17;117011;1177;67464;-78
2021/10/29 01:00:36;;;;;;;53.00;29.20;;;;;;;-0.61;82.94;98324.16;117002;1177;69202;-73
2021/10/29 01:03:06;;;;;;;57.30;31.80;;;;;;;-0.61;83.60;98322.98;116985;1177;59535;-81
2021/10/29 01:05:36;;;;;;;57.90;32.40;;;;;;;-0.64;82.99;98321.74;116984;1177;59497;-72
2021/10/29 01:08:06;;;;;;;63.90;35.50;;;;;;;-0.66;81.92;98320.38;116928;1177;71367;-73
2021/10/29 01:10:37;;;;;;;59.20;33.10;;;;;;;-0.66;81.66;98318.02;116888;1178;68025;-70
2021/10/29 01:13:06;;;;;;;57.50;32.60;;;;;;;-0.70;82.13;98321.18;116926;1177;68616;-69
2021/10/29 01:15:36;;;;;;;52.50;31.00;;;;;;;-0.72;82.24;98321.00;116968;1177;59551;-73
2021/10/29 01:18:06;;;;;;;48.70;26.90;;;;;;;-0.75;82.86;98321.95;117026;1177;59541;-74
2021/10/29 01:20:36;;;;;;;57.70;31.50;;;;;;;-0.77;84.32;98320.64;116819;1179;70619;-76
2021/10/29 01:23:05;;;;;;;58.80;33.50;;;;;;;-0.79;83.76;98317.00;116922;1177;68169;-80
2021/10/29 01:25:35;;;;;;;61.20;32.00;;;;;;;-0.82;83.06;98315.29;117026;1177;69061;-75
2021/10/29 01:28:14;;;;;;;55.60;31.40;;;;;;;-0.82;83.35;98321.66;116965;1177;59530;-73
2021/10/29 01:30:43;;;;;;;41.70;22.40;;;;;;;-0.85;83.19;98318.47;116978;1177;59612;-74
2021/10/29 01:33:13;;;;;;;63.30;35.50;;;;;;;-0.86;84.08;98316.51;117112;1177;70651;-74
2021/10/29 01:35:42;;;;;;;66.00;35.20;;;;;;;-0.88;83.10;98314.89;116977;1177;68352;-75
2021/10/29 01:38:12;;;;;;;60.40;31.80;;;;;;;-0.95;82.42;98314.92;116923;1177;68539;-73
2021/10/29 01:40:41;;;;;;;41.90;26.00;;;;;;;-1.01;82.76;98312.98;117082;1177;59520;-70
2021/10/29 01:43:10;;;;;;;55.80;28.80;;;;;;;-1.04;84.02;98314.44;116993;1179;59577;-74
2021/10/29 01:45:40;;;;;;;55.20;30.60;;;;;;;-1.06;83.07;98315.14;117032;1177;70368;-71
2021/10/29 01:48:09;;;;;;;64.10;34.70;;;;;;;-1.07;82.15;98317.84;116989;1170;68205;-77
2021/10/29 01:50:39;;;;;;;63.70;34.00;;;;;;;-1.08;81.82;98314.36;116836;1180;69268;-69
2021/10/29 01:53:09;;;;;;;48.70;28.10;;;;;;;-1.14;82.28;98312.16;116949;1177;59541;-69
2021/10/29 01:55:38;;;;;;;47.00;29.30;;;;;;;-1.15;85.05;98313.45;116903;1178;59551;-74
2021/10/29 01:58:08;;;;;;;49.50;27.80;;;;;;;-1.17;84.68;98313.70;116943;1177;71232;-70
2021/10/29 02:00:37;;;;;;;42.00;23.60;;;;;;;-1.14;85.88;98312.01;116954;1178;68241;-72
2021/10/29 02:03:07;;;;;;;54.10;30.50;;;;;;;-1.10;87.44;98313.36;117003;1177;69217;-71
2021/10/29 02:05:37;;;;;;;55.40;31.40;;;;;;;-1.06;87.48;98313.42;116963;1177;59540;-69
2021/10/29 02:08:07;;;;;;;62.90;33.90;;;;;;;-1.05;86.60;98311.06;116907;1179;59543;-75
2021/10/29 02:10:37;;;;;;;54.80;32.80;;;;;;;-1.01;86.37;98310.80;116997;1177;71434;-76
2021/10/29 02:13:07;;;;;;;63.20;37.60;;;;;;;-0.98;86.18;98307.29;116912;1177;68398;-75
2021/10/29 02:15:36;;;;;;;55.70;33.10;;;;;;;-0.99;85.48;98310.36;116871;1177;69228;-69
2021/10/29 02:18:06;;;;;;;55.60;31.30;;;;;;;-1.04;84.22;98314.41;116944;1177;59488;-70
2021/10/29 02:20:35;;;;;;;42.10;24.20;;;;;;;-1.12;84.06;98315.48;116919;1177;59542;-75
2021/10/29 02:23:05;;;;;;;49.50;28.50;;;;;;;-1.19;84.88;98317.59;116988;1179;70595;-70
2021/10/29 02:25:34;;;;;;;53.40;29.50;;;;;;;-1.23;84.65;98316.48;117152;1177;67478;-69
2021/10/29 02:28:05;;;;;;;45.90;29.30;;;;;;;-1.30;84.66;98314.92;116976;1177;69424;-71
2021/10/29 02:30:34;;;;;;;48.40;29.40;;;;;;;-1.36;84.00;98310.41;117001;1177;59526;-72
2021/10/29 02:33:04;;;;;;;52.10;32.00;;;;;;;-1.37;83.86;98304.32;116964;1177;59518;-76
2021/10/29 02:35:34;;;;;;;61.50;33.70;;;;;;;-1.35;83.99;98308.33;116892;1179;71269;-74
2021/10/29 02:38:04;;;;;;;56.80;31.10;;;;;;;-1.33;83.68;98306.46;116851;1179;67386;-73
2021/10/29 02:40:34;;;;;;;42.80;24.80;;;;;;;-1.33;84.17;98308.63;116961;1177;69448;-76
2021/10/29 02:43:04;;;;;;;60.50;32.80;;;;;;;-1.33;84.87;98310.56;116923;1178;59476;-69
2021/10/29 02:45:33;;;;;;;50.90;28.20;;;;;;;-1.34;84.05;98310.38;117030;1177;59465;-75
2021/10/29 02:48:04;;;;;;;40.60;24.00;;;;;;;-1.35;84.42;98313.63;116944;1177;71197;-75
2021/10/29 02:50:34;;;;;;;51.40;28.10;;;;;;;-1.34;85.93;98309.23;116968;1178;68211;-74
2021/10/29 02:53:04;;;;;;;51.90;28.90;;;;;;;-1.34;86.02;98307.51;116933;1178;68779;-72
2021/10/29 02:55:35;;;;;;;56.40;31.50;;;;;;;-1.34;86.14;98306.52;116978;1177;59570;-73
2021/10/29 02:58:04;;;;;;;55.80;31.50;;;;;;;-1.34;85.27;98310.98;116984;1177;59494;-73
2021/10/29 03:00:34;;;;;;;60.80;34.50;;;;;;;-1.34;84.75;98304.79;117007;1177;70160;-77
2021/10/29 03:03:03;;;;;;;57.40;33.40;;;;;;;-1.33;83.77;98303.88;117029;1177;67617;-75
2021/10/29 03:05:37;;;;;;;58.20;31.00;;;;;;;-1.36;83.36;98299.90;116995;1177;68412;-70
2021/10/29 03:08:07;;;;;;;68.80;39.10;;;;;;;-1.41;83.78;98296.20;116949;1177;59560;-71
2021/10/29 03:10:37;;;;;;;55.30;31.70;;;;;;;-1.44;83.32;98296.39;116872;1179;59592;-75
2021/10/29 03:13:06;;;;;;;148.20;60.30;;;;;;;-1.45;83.94;98296.27;117052;1177;69584;-72
2021/10/29 03:15:37;;;;;;;88.90;43.00;;;;;;;-1.45;84.94;98299.40;117018;1177;68538;-69
2021/10/29 03:18:06;;;;;;;63.50;33.70;;;;;;;-1.45;84.11;98294.02;116956;1177;68443;-69
2021/10/29 03:20:36;;;;;;;54.80;31.50;;;;;;;-1.52;83.43;98293.98;116896;1178;59569;-80
2021/10/29 03:23:06;;;;;;;55.00;31.90;;;;;;;-1.57;83.81;98294.14;117058;1177;59561;-79
2021/10/29 03:25:35;;;;;;;70.10;36.10;;;;;;;-1.59;85.31;98302.77;116968;1177;69858;-82
2021/10/29 03:28:04;;;;;;;65.20;36.20;;;;;;;-1.60;84.60;98300.64;116947;1177;68483;-69
2021/10/29 03:30:34;;;;;;;55.10;30.10;;;;;;;-1.61;85.26;98304.79;116944;1177;67433;-73
2021/10/29 03:33:04;;;;;;;58.70;33.60;;;;;;;-1.62;85.68;98302.65;116992;1177;59547;-74
2021/10/29 03:35:34;;;;;;;60.10;32.20;;;;;;;-1.64;84.26;98307.63;117024;1177;59539;-74
2021/10/29 03:40:49;;;;;;;44.90;25.60;;;;;;;-1.61;86.65;98309.68;116934;1177;67753;-80
2021/10/29 03:43:25;;;;;;;50.70;27.20;;;;;;;-1.59;86.56;98310.60;116892;1178;69089;-74
2021/10/29 03:45:59;;;;;;;56.10;28.30;;;;;;;-1.56;87.40;98305.20;117016;1177;59470;-82
2021/10/29 03:48:55;;;;;;;43.90;27.00;;;;;;;-1.56;86.61;98303.33;116998;1177;59908;-69
2021/10/29 03:51:41;;;;;;;51.50;30.50;;;;;;;-1.56;86.82;98299.77;116971;1177;71779;-68
2021/10/29 03:54:17;;;;;;;48.70;27.70;;;;;;;-1.53;87.06;98306.53;116991;1177;67405;-72
2021/10/29 03:59:43;;;;;;;53.20;31.30;;;;;;;-1.50;87.90;98299.63;116805;1178;59514;-72
2021/10/29 04:02:13;;;;;;;48.60;30.30;;;;;;;-1.48;88.14;98296.10;116971;1177;59479;-74
2021/10/29 04:04:42;;;;;;;54.60;28.90;;;;;;;-1.47;87.76;98296.75;116985;1177;71395;-73
2021/10/29 04:07:11;;;;;;;40.90;22.80;;;;;;;-1.48;86.92;98293.87;116949;1177;67778;-72
2021/10/29 04:09:43;;;;;;;46.40;29.10;;;;;;;-1.48;87.27;98293.71;116905;1178;67513;-75
2021/10/29 04:12:14;;;;;;;49.50;28.30;;;;;;;-1.47;87.17;98292.33;116975;1177;59525;-76
2021/10/29 04:14:43;;;;;;;52.20;30.70;;;;;;;-1.45;87.92;98291.06;116997;1177;59945;-73
2021/10/29 04:17:13;;;;;;;55.20;31.10;;;;;;;-1.43;87.33;98286.80;117034;1177;70803;-81
2021/10/29 04:19:42;;;;;;;55.20;31.90;;;;;;;-1.43;86.94;98292.61;116905;1177;68550;-71
2021/10/29 04:22:11;;;;;;;53.40;28.80;;;;;;;-1.42;86.64;98293.60;116916;1177;68253;-76
2021/10/29 04:24:40;;;;;;;43.20;25.20;;;;;;;-1.38;87.51;98294.35;116900;1177;59542;-80
2021/10/29 04:27:18;;;;;;;44.40;25.60;;;;;;;-1.39;87.59;98294.54;116911;1177;59545;-75
2021/10/29 04:29:51;;;;;;;39.10;22.30;;;;;;;-1.42;87.32;98293.85;116869;1178;70634;-78
2021/10/29 04:32:20;;;;;;;43.80;24.90;;;;;;;-1.44;87.06;98292.42;117028;1177;67626;-73
2021/10/29 04:34:48;;;;;;;56.20;28.40;;;;;;;-1.45;87.44;98293.94;116951;1177;69318;-68
2021/10/29 04:37:19;;;;;;;47.30;25.00;;;;;;;-1.46;87.26;98296.31;116877;1177;59635;-69
2021/10/29 04:39:48;;;;;;;53.90;29.20;;;;;;;-1.45;87.90;98295.59;116960;1177;59571;-69
2021/10/29 04:42:18;;;;;;;59.90;34.30;;;;;;;-1.43;86.94;98295.89;117021;1178;70835;-75
2021/10/29 04:44:47;;;;;;;63.50;37.10;;;;;;;-1.34;86.43;98300.89;117021;1177;68977;-68
2021/10/29 04:47:16;;;;;;;54.70;31.70;;;;;;;-1.32;85.91;98297.24;116916;1178;68443;-68
2021/10/29 04:49:45;;;;;;;61.70;33.30;;;;;;;-1.34;86.35;98299.90;116976;1177;59545;-73
2021/10/29 04:52:14;;;;;;;60.70;33.90;;;;;;;-1.36;86.13;98301.33;116966;1177;59516;-78
2021/10/29 04:54:43;;;;;;;44.90;27.40;;;;;;;-1.35;85.93;98305.30;116949;1177;72007;-69
2021/10/29 04:57:13;;;;;;;52.10;31.30;;;;;;;-1.34;87.35;98302.31;116725;1179;68176;-71
2021/10/29 04:59:41;;;;;;;45.70;26.40;;;;;;;-1.36;87.46;98298.45;117023;1177;68451;-79
2021/10/29 05:02:12;;;;;;;67.50;34.10;;;;;;;-1.36;87.65;98297.88;117011;1177;59529;-81
2021/10/29 05:04:41;;;;;;;;;;;;;;;-1.38;86.56;98294.98;117059;1177;59542;-70
2021/10/29 05:07:10;;;;;;;50.20;30.00;;;;;;;-1.38;86.80;98298.37;116944;1177;71941;-75
2021/10/29 05:09:39;;;;;;;58.20;30.40;;;;;;;-1.40;86.86;98294.66;116990;1178;68375;-70
2021/10/29 05:12:08;;;;;;;58.40;35.50;;;;;;;-1.39;86.49;98299.20;116966;1177;68412;-74
2021/10/29 05:14:37;;;;;;;66.50;37.80;;;;;;;-1.37;86.55;98302.14;117062;1177;59552;-76
2021/10/29 05:17:06;;;;;;;67.90;36.90;;;;;;;-1.38;86.69;98300.70;117087;1177;59538;-79
2021/10/29 05:19:35;;;;;;;64.70;34.90;;;;;;;-1.39;86.65;98298.80;116755;1178;72051;-73
2021/10/29 05:22:04;;;;;;;45.50;24.80;;;;;;;-1.34;87.64;98298.56;116909;1178;68323;-70
2021/10/29 05:24:35;;;;;;;49.60;25.90;;;;;;;-1.31;87.93;98300.30;116990;1177;69219;-79
2021/10/29 05:27:04;;;;;;;49.60;30.00;;;;;;;-1.24;89.11;98304.44;116935;1180;59552;-78
2021/10/29 05:29:33;;;;;;;55.90;29.90;;;;;;;-1.18;89.23;98304.96;116966;1169;59511;-81
2021/10/29 05:32:03;;;;;;;59.60;32.90;;;;;;;-1.11;88.46;98304.70;117045;1177;71418;-70
2021/10/29 05:34:32;;;;;;;58.00;32.20;;;;;;;-1.07;87.58;98307.86;116964;1177;67904;-69
2021/10/29 05:37:03;;;;;;;;;;;;;;;-1.06;87.22;98308.62;116764;1179;68215;-71
2021/10/29 05:39:32;;;;;;;42.40;23.50;;;;;;;-1.04;87.05;98306.27;116997;1177;59521;-77
2021/10/29 05:42:01;;;;;;;50.10;28.60;;;;;;;-1.00;87.14;98306.00;116892;1178;59580;-70
2021/10/29 05:44:31;;;;;;;46.90;25.40;;;;;;;-0.94;87.25;98302.05;116968;1178;71272;-69
2021/10/29 05:47:00;;;;;;;49.00;26.80;;;;;;;-0.86;87.94;98302.60;117007;1177;68847;-79
2021/10/29 05:49:28;;;;;;;44.40;24.90;;;;;;;-0.77;87.85;98301.45;116981;1177;69447;-79
2021/10/29 05:51:57;;;;;;;38.80;22.40;;;;;;;-0.69;87.90;98302.64;117001;1177;59480;-70
2021/10/29 05:57:03;;;;;;;42.40;23.90;;;;;;;-0.49;87.48;98307.61;116846;1179;71410;-77
2021/10/29 05:59:35;;;;;;;47.90;25.80;;;;;;;-0.38;87.45;98304.75;116993;1177;68250;-71
2021/10/29 06:02:04;;;;;;;40.90;24.60;;;;;;;-0.29;86.85;98304.05;116808;1177;69283;-75
2021/10/29 06:04:33;;;;;;;44.30;24.10;;;;;;;-0.20;86.41;98303.13;116854;1179;59506;-78
2021/10/29 06:07:03;;;;;;;37.00;20.90;;;;;;;-0.09;86.32;98303.41;117007;1177;59522;-76
2021/10/29 06:09:32;;;;;;;80.20;44.60;;;;;;;0.02;86.13;98306.60;116996;1177;71595;-81
2021/10/29 06:12:01;;;;;;;100.50;50.50;;;;;;;0.15;85.52;98309.17;116856;1177;67877;-76
2021/10/29 06:14:29;;;;;;;116.10;60.50;;;;;;;0.35;84.77;98310.08;116859;1180;69723;-75
2021/10/29 06:16:58;;;;;;;116.60;58.80;;;;;;;0.73;80.85;98310.36;116918;1177;59526;-77
2021/10/29 06:19:27;;;;;;;88.80;51.00;;;;;;;1.29;82.61;98318.08;116923;1177;59500;-69
2021/10/29 06:22:43;;;;;;;71.90;42.50;;;;;;;1.88;82.78;98316.06;117004;1177;71224;-77
2021/10/29 06:24:49;;;;;;;76.20;44.90;;;;;;;2.53;79.15;98314.41;116878;1177;67868;-70
2021/10/29 06:29:51;;;;;;;60.40;39.00;;;;;;;3.74;77.40;98324.48;116977;1177;59569;-73
2021/10/29 06:32:24;;;;;;;86.20;51.60;;;;;;;4.34;77.21;98321.77;116878;1177;59519;-73
2021/10/29 06:34:53;;;;;;;75.50;45.70;;;;;;;4.84;75.12;98324.77;117139;1177;71391;-73
2021/10/29 06:37:22;;;;;;;62.90;40.50;;;;;;;5.33;69.51;98328.08;117014;1178;68061;-70
2021/10/29 06:39:51;;;;;;;64.60;38.70;;;;;;;5.84;68.21;98332.96;117105;1177;69254;-72
2021/10/29 06:42:28;;;;;;;71.50;44.40;;;;;;;6.25;64.96;98333.89;117167;1177;59527;-75
2021/10/29 06:45:06;;;;;;;88.60;49.50;;;;;;;6.29;61.12;98332.02;117087;1177;59517;-79
2021/10/29 07:01:53;;;;;;;79.90;49.80;;;;;;;8.99;57.04;98331.86;117061;1176;70669;-74
2021/10/29 07:41:25;;;;;;;35.40;24.00;;;;;;;13.54;43.96;98313.08;117016;1177;59546;-75
2021/10/29 07:43:59;;;;;;;34.00;24.30;;;;;;;13.62;43.45;98312.13;116996;1176;70908;-76
2021/10/29 07:46:30;;;;;;;34.80;23.00;;;;;;;14.18;42.92;98311.94;117037;1177;67718;-79
2021/10/29 07:48:59;;;;;;;32.50;23.70;;;;;;;14.53;41.10;98310.77;116964;1179;69242;-75
2021/10/29 07:51:28;;;;;;;38.50;22.60;;;;;;;15.11;40.55;98314.48;116947;1170;59612;-73
2021/10/29 07:53:58;;;;;;;28.20;20.50;;;;;;;15.35;40.41;98312.86;116978;1177;59529;-69
2021/10/29 07:56:28;;;;;;;29.40;19.60;;;;;;;15.76;39.30;98311.28;117030;1177;71949;-76
2021/10/29 07:59:21;;;;;;;26.90;18.80;;;;;;;15.81;37.41;98308.00;116998;1177;67571;-81
2021/10/29 08:01:51;;;;;;;27.80;18.40;;;;;;;15.56;37.35;98304.73;116989;1177;69309;-73
2021/10/29 08:04:22;;;;;;;30.10;18.90;;;;;;;15.68;37.08;98307.80;116947;1177;59494;-78
2021/10/29 08:06:51;;;;;;;;;;;;;;;15.61;38.57;98304.39;116987;1177;59551;-75
2021/10/29 08:09:24;;;;;;;30.50;19.30;;;;;;;16.29;38.19;98301.01;116922;1179;71422;-76
2021/10/29 08:11:54;;;;;;;27.60;19.10;;;;;;;16.97;36.93;98298.08;116951;1177;67423;-69
2021/10/29 08:14:23;;;;;;;;;;;;;;;17.43;35.36;98290.66;116949;1177;68453;-69
2021/10/29 08:16:53;;;;;;;28.40;19.30;;;;;;;17.54;33.94;98285.38;116964;1177;59548;-74
2021/10/29 08:19:40;;;;;;;37.90;23.90;;;;;;;17.52;34.09;98281.70;117020;1177;59546;-70
2021/10/29 08:22:09;;;;;;;35.60;23.20;;;;;;;17.40;33.40;98281.75;116981;1177;71473;-79
2021/10/29 08:24:39;;;;;;;40.60;28.40;;;;;;;17.13;34.17;98279.36;117129;1178;69103;-81
2021/10/29 08:27:09;;;;;;;45.70;31.00;;;;;;;17.70;33.10;98278.50;117007;1178;69185;-85
2021/10/29 08:29:38;;;;;;;50.00;32.20;;;;;;;17.82;32.52;98275.60;117067;1178;59517;-81
2021/10/29 08:32:08;;;;;;;46.60;33.50;;;;;;;18.15;32.48;98275.83;117145;1177;59554;-75
2021/10/29 08:34:37;;;;;;;52.30;36.40;;;;;;;18.60;31.88;98271.02;117011;1177;70549;-70
2021/10/29 08:37:08;;;;;;;50.30;33.60;;;;;;;18.52;31.31;98272.79;117182;1177;68769;-76
2021/10/29 08:39:38;;;;;;;39.50;25.70;;;;;;;18.86;30.99;98267.66;117009;1177;69256;-80
2021/10/29 08:42:07;;;;;;;;;;;;;;;19.26;30.18;98266.11;117297;1176;59583;-73
2021/10/29 08:44:37;;;;;;;40.10;25.30;;;;;;;19.75;30.37;98269.86;117048;1177;59572;-71
2021/10/29 08:47:06;;;;;;;;;;;;;;;20.10;28.56;98266.17;117218;1177;70877;-74
2021/10/29 08:49:35;;;;;;;30.10;19.20;;;;;;;20.03;29.16;98263.87;117065;1177;67494;-84
2021/10/29 08:52:07;;;;;;;29.30;20.30;;;;;;;20.59;28.01;98261.80;117118;1177;69016;-70
2021/10/29 08:54:36;;;;;;;23.70;17.60;;;;;;;20.26;28.13;98256.66;117115;1177;59535;-77
2021/10/29 08:57:05;;;;;;;19.70;16.30;;;;;;;20.05;28.47;98257.11;116971;1177;59471;-72
2021/10/29 08:59:39;;;;;;;23.90;15.50;;;;;;;20.44;27.63;98259.16;117128;1177;71139;-70
2021/10/29 09:32:59;;;;;;;30.70;20.90;;;;;;;24.65;23.35;98223.80;117573;1177;69209;-76
2021/10/29 09:35:36;;;;;;;21.20;16.10;;;;;;;25.11;22.26;98218.56;117417;1177;59596;-70
2021/10/29 09:38:15;;;;;;;21.60;13.30;;;;;;;24.59;22.60;98217.10;117350;1177;59539;-70
2021/10/29 09:41:04;;;;;;;18.80;11.90;;;;;;;25.09;22.38;98215.23;117533;1177;70636;-70
2021/10/29 09:43:45;;;;;;;18.70;11.70;;;;;;;25.55;21.51;98213.17;117475;1179;68289;-71
2021/10/29 09:46:28;;;;;;;17.30;12.90;;;;;;;25.78;21.00;98213.92;117172;1177;69034;-75
2021/10/29 09:49:14;;;;;;;18.30;12.40;;;;;;;25.75;21.03;98214.66;117023;1177;59498;-83
2021/10/29 09:52:18;;;;;;;18.60;11.30;;;;;;;26.42;20.31;98210.95;117050;1177;59529;-78
2021/10/29 09:57:33;;;;;;;;;;;;;;;25.79;20.60;98208.38;116978;1177;68386;-86
2021/10/29 10:00:12;;;;;;;20.30;12.60;;;;;;;25.15;21.22;98205.92;116973;1171;68478;-84
2021/10/29 10:02:46;;;;;;;18.00;11.30;;;;;;;24.27;22.59;98205.34;116957;1177;59565;-72
2021/10/29 10:05:16;;;;;;;18.30;12.50;;;;;;;24.55;22.45;98201.70;116960;1177;59564;-76
2021/10/29 10:07:46;;;;;;;17.70;12.20;;;;;;;24.76;22.14;98197.58;117006;1178;71947;-71
2021/10/29 10:10:15;;;;;;;18.50;12.50;;;;;;;24.63;22.94;98195.13;117041;1177;68515;-74
2021/10/29 10:12:46;;;;;;;20.20;13.60;;;;;;;24.61;22.68;98188.98;116863;1177;68667;-80
2021/10/29 10:15:15;;;;;;;19.20;13.60;;;;;;;25.72;21.84;98191.56;116939;1177;59552;-88
2021/10/29 10:17:45;;;;;;;20.50;13.60;;;;;;;26.24;21.01;98189.44;116967;1174;59532;-84
2021/10/29 10:20:14;;;;;;;;;;;;;;;26.80;20.33;98183.48;116976;1177;71371;-87
2021/10/29 10:22:47;;;;;;;16.40;12.80;;;;;;;26.58;20.20;98180.67;117003;1177;68375;-78
2021/10/29 10:25:44;;;;;;;16.80;13.00;;;;;;;27.02;20.16;98177.01;117021;1177;68449;-85
2021/10/29 10:42:49;;;;;;;18.70;11.50;;;;;;;28.13;19.26;98152.87;116949;1177;59541;-74
2021/10/29 10:45:38;;;;;;;17.90;12.60;;;;;;;28.44;18.99;98153.14;117942;1177;58698;-78
2021/10/29 10:48:13;;;;;;;20.70;12.30;;;;;;;28.72;18.18;98149.61;117876;1177;71810;-79
2021/10/29 10:50:46;;;;;;;15.90;11.60;;;;;;;28.07;18.70;98148.47;116971;1180;67585;-81
2021/10/29 10:53:24;;;;;;;16.40;11.20;;;;;;;27.51;19.62;98140.71;117065;1177;69246;-78
2021/10/29 10:59:42;;;;;;;20.10;11.20;;;;;;;28.04;19.01;98134.43;116802;1177;59599;-74
2021/10/29 11:02:37;;;;;;;;;;;;;;;26.74;20.17;98129.05;116997;1177;71306;-74
2021/10/29 11:10:15;;;;;;;17.90;11.20;;;;;;;26.99;20.63;98117.77;116969;1177;59533;-76
2021/10/29 11:12:45;;;;;;;15.70;11.20;;;;;;;28.01;19.30;98114.38;117182;1177;59500;-71
2021/10/29 11:15:17;;;;;;;;;;;;;;;28.32;18.78;98113.36;117060;1177;72004;-75
2021/10/29 11:17:57;;;;;;;15.90;11.00;;;;;;;27.86;19.30;98108.85;116986;1177;68433;-86
2021/10/29 11:20:40;;;;;;;17.20;10.10;;;;;;;28.08;18.81;98106.61;116945;1177;69031;-71
2021/10/29 11:23:20;;;;;;;17.60;10.60;;;;;;;27.77;19.28;98109.03;117003;1177;59526;-69
2021/10/29 11:26:06;;;;;;;16.50;10.20;;;;;;;29.33;18.21;98107.15;117015;1177;59519;-80
2021/10/29 11:28:46;;;;;;;16.20;10.10;;;;;;;29.53;17.75;98103.81;116943;1177;71826;-71
2021/10/29 11:31:17;;;;;;;;;;;;;;;29.65;17.78;98102.30;116911;1177;68409;-76
2021/10/29 11:33:48;;;;;;;16.10;10.80;;;;;;;29.97;17.43;98093.95;116975;1177;69253;-80
2021/10/29 11:36:26;;;;;;;17.90;10.50;;;;;;;29.68;17.54;98094.24;116937;1177;59583;-76
2021/10/29 11:38:56;;;;;;;16.30;10.50;;;;;;;29.38;17.70;98097.02;116865;1177;59498;-74
2021/10/29 11:41:29;;;;;;;15.90;9.80;;;;;;;29.02;18.10;98093.30;116899;1177;71976;-70
2021/10/29 11:44:13;;;;;;;13.10;8.80;;;;;;;29.69;17.62;98086.35;116964;1177;67719;-77
2021/10/29 11:46:45;;;;;;;13.80;9.60;;;;;;;30.22;17.24;98082.98;116971;1178;68415;-75
2021/10/29 11:49:15;;;;;;;15.50;9.30;;;;;;;30.31;16.79;98079.46;117034;1177;59540;-77
2021/10/29 11:51:46;;;;;;;15.40;10.30;;;;;;;29.75;17.66;98074.88;116991;1177;59548;-74
2021/10/29 11:54:22;;;;;;;14.60;8.90;;;;;;;29.30;18.45;98079.31;116853;1178;70645;-72
2021/10/29 12:07:36;;;;;;;19.80;12.60;;;;;;;30.10;17.71;98068.43;117006;1177;71358;-75
2021/10/29 12:10:07;;;;;;;18.90;11.00;;;;;;;30.63;17.17;98063.27;116914;1177;68376;-79
2021/10/29 12:12:39;;;;;;;16.10;11.20;;;;;;;30.97;17.08;98064.27;117074;1177;69472;-78
2021/10/29 12:15:20;;;;;;;15.90;10.70;;;;;;;31.41;16.82;98058.50;117061;1176;59518;-72
2021/10/29 12:20:26;;;;;;;22.10;11.00;;;;;;;30.84;16.86;98055.42;116960;1177;71786;-70
2021/10/29 12:23:01;;;;;;;13.70;10.20;;;;;;;30.80;17.18;98051.18;117004;1177;67726;-70
2021/10/29 12:28:15;;;;;;;15.80;10.20;;;;;;;31.26;16.53;98044.14;116991;1177;59545;-73
2021/10/29 12:47:32;;;;;;;20.80;10.90;;;;;;;30.58;17.26;98029.27;116950;1177;69062;-75
2021/10/29 12:53:58;;;;;;;19.10;11.40;;;;;;;30.53;17.21;98019.23;117002;1177;68572;-73
2021/10/29 13:01:25;;;;;;;22.30;11.80;;;;;;;29.86;17.95;98010.52;117053;1177;59537;-74
2021/10/29 13:02:07;;;;;;;18.90;11.30;;;;;;;30.14;17.81;98009.05;117072;1177;70705;-71
2021/10/29 13:04:41;;;;;;;16.10;10.70;;;;;;;29.85;18.21;98012.34;116931;1177;67659;-73
2021/10/29 13:07:12;;;;;;;17.20;11.00;;;;;;;29.87;18.07;98010.84;116950;1177;69337;-73
2021/10/29 13:09:42;;;;;;;20.10;11.20;;;;;;;29.68;18.09;98005.62;117060;1177;59523;-72
2021/10/29 13:12:15;;;;;;;19.10;11.50;;;;;;;29.63;18.44;98008.84;116980;1177;59561;-78
2021/10/29 13:14:49;;;;;;;17.10;11.30;;;;;;;29.91;18.02;98008.58;116938;1179;71418;-79
2021/10/29 13:17:51;;;;;;;18.80;11.30;;;;;;;29.62;18.03;98008.91;116934;1178;67768;-76
2021/10/29 14:01:22;;;;;;;17.40;11.30;;;;;;;28.62;19.37;97995.08;116770;1179;69356;-73
2021/10/29 14:34:18;;;;;;;18.70;10.80;;;;;;;23.50;25.76;97985.90;117039;1177;59548;-74
2021/10/29 14:36:53;;;;;;;21.60;11.20;;;;;;;23.02;26.54;97984.33;117012;1177;69691;-74
2021/10/29 14:45:18;;;;;;;16.10;11.50;;;;;;;21.74;28.70;97982.55;116865;1179;59534;-75
2021/10/29 15:24:35;;;;;;;19.90;10.40;;;;;;;15.55;40.21;97980.56;117019;1177;71147;-76
2021/10/29 15:29:46;;;;;;;43.80;22.80;;;;;;;14.27;40.93;97987.20;117047;1177;59529;-78
2021/10/29 15:46:19;;;;;;;33.20;19.90;;;;;;;13.18;43.04;97998.09;116827;1177;71252;-76
2021/10/29 15:48:54;;;;;;;45.30;24.10;;;;;;;13.06;44.21;98001.32;117012;1177;67414;-76
2021/10/29 15:51:23;;;;;;;54.20;27.20;;;;;;;12.91;46.73;97999.36;116875;1177;69013;-84
2021/10/29 15:53:52;;;;;;;62.10;33.50;;;;;;;12.79;45.30;98003.05;116881;1179;59537;-78
2021/10/29 16:18:23;;;;;;;83.70;41.70;;;;;;;11.56;50.47;98015.56;116947;1177;69745;-73
2021/10/29 16:20:52;;;;;;;72.60;37.10;;;;;;;11.44;50.30;98012.75;116969;1177;59542;-80
2021/10/29 16:23:26;;;;;;;73.90;40.40;;;;;;;11.37;55.06;98016.97;116973;1177;59574;-78
2021/10/29 16:26:00;;;;;;;81.20;42.30;;;;;;;11.31;54.17;98020.65;116796;1177;71869;-75
2021/10/29 16:28:32;;;;;;;90.20;49.10;;;;;;;11.21;53.18;98019.14;117048;1177;68251;-83
2021/10/29 16:31:01;;;;;;;48.30;25.10;;;;;;;11.02;52.95;98024.39;117117;1177;69042;-87
2021/10/29 16:33:40;;;;;;;33.50;17.40;;;;;;;10.70;53.17;98025.77;117815;1176;59548;-86
2021/10/29 16:36:14;;;;;;;39.80;19.90;;;;;;;10.48;54.48;98027.48;116978;1176;59561;-87
2021/10/29 16:38:44;;;;;;;46.30;25.50;;;;;;;10.40;53.12;98027.39;117173;1177;70645;-70
2021/10/29 16:41:14;;;;;;;;;;;;;;;10.36;54.88;98027.06;117110;1177;67644;-70
2021/10/29 16:43:45;;;;;;;50.60;26.90;;;;;;;10.37;54.62;98029.25;117107;1177;67760;-70
2021/10/29 16:46:14;;;;;;;57.70;29.80;;;;;;;10.37;53.99;98028.15;117172;1168;59592;-73